ACI140 NWWW-YSSY
Flight info
| Callsign | ACI140 |
|---|---|
| Flight time | N/A |
| Altitude | 34000 |
| Route | POXAK3W POXAK B580 MISLY DCT RIKNI N774 MARLN |
| Aircraft | A320/M-SDE3FGHIRWY/LB1 |
Departure
| Time | 2026-05-09 01:57 |
|---|---|
| Airport | La Tontouta International Airport (NWWW) |
Arrival
| Time | N/A |
|---|---|
| Airport | Sydney Kingsford Smith International Airport (YSSY) |
| Time | Latitude | Longitude | Altitude | Speed | Heading |
|---|---|---|---|---|---|
| 2026-05-09 01:31 | -22.01339 | 166.21599 | 50 ft | 0 kts | 121° |
| 2026-05-09 01:48 | -22.01326 | 166.21576 | 49 ft | 4 kts | 124° |
| 2026-05-09 01:49 | -22.01310 | 166.21553 | 48 ft | 4 kts | 129° |
| 2026-05-09 01:49 | -22.01292 | 166.21532 | 48 ft | 4 kts | 146° |
| 2026-05-09 01:49 | -22.01271 | 166.21524 | 48 ft | 2 kts | 208° |
| 2026-05-09 01:49 | -22.01269 | 166.21525 | 46 ft | 0 kts | 211° |
| 2026-05-09 01:52 | -22.01269 | 166.21524 | 45 ft | 0 kts | 211° |
| 2026-05-09 01:52 | -22.01304 | 166.21501 | 47 ft | 12 kts | 212° |
| 2026-05-09 01:52 | -22.01390 | 166.21466 | 49 ft | 14 kts | 167° |
| 2026-05-09 01:52 | -22.01446 | 166.21541 | 48 ft | 12 kts | 120° |
| 2026-05-09 01:53 | -22.01486 | 166.21612 | 50 ft | 10 kts | 121° |
| 2026-05-09 01:53 | -22.01519 | 166.21668 | 49 ft | 8 kts | 127° |
| 2026-05-09 01:53 | -22.01566 | 166.21660 | 50 ft | 11 kts | 212° |
| 2026-05-09 01:53 | -22.01650 | 166.21656 | 51 ft | 14 kts | 131° |
| 2026-05-09 01:54 | -22.01701 | 166.21745 | 51 ft | 17 kts | 122° |
| 2026-05-09 01:54 | -22.01761 | 166.21851 | 55 ft | 16 kts | 120° |
| 2026-05-09 01:54 | -22.01833 | 166.21980 | 53 ft | 23 kts | 121° |
| 2026-05-09 01:54 | -22.01920 | 166.22134 | 52 ft | 25 kts | 121° |
| 2026-05-09 01:55 | -22.02011 | 166.22296 | 51 ft | 26 kts | 121° |
| 2026-05-09 01:55 | -22.02106 | 166.22466 | 49 ft | 26 kts | 122° |
| 2026-05-09 01:55 | -22.02152 | 166.22584 | 55 ft | 14 kts | 93° |
| 2026-05-09 01:55 | -22.02179 | 166.22649 | 55 ft | 9 kts | 176° |
| 2026-05-09 01:56 | -22.02187 | 166.22604 | 53 ft | 8 kts | 308° |
| 2026-05-09 01:56 | -22.02156 | 166.22554 | 52 ft | 11 kts | 301° |
| 2026-05-09 01:56 | -22.02043 | 166.22353 | 54 ft | 64 kts | 301° |
| 2026-05-09 01:56 | -22.01705 | 166.21752 | 52 ft | 123 kts | 301° |
| 2026-05-09 01:57 | -22.01173 | 166.20807 | 54 ft | 169 kts | 300° |
| 2026-05-09 01:57 | -22.00549 | 166.19719 | 631 ft | 173 kts | 299° |
| 2026-05-09 01:57 | -21.99922 | 166.18617 | 1430 ft | 173 kts | 296° |
| 2026-05-09 01:57 | -21.99729 | 166.17390 | 2122 ft | 170 kts | 253° |
| 2026-05-09 01:58 | -22.00391 | 166.16296 | 2528 ft | 188 kts | 215° |
| 2026-05-09 01:58 | -22.01687 | 166.15871 | 2841 ft | 210 kts | 184° |
| 2026-05-09 01:58 | -22.03263 | 166.15813 | 3080 ft | 241 kts | 182° |
| 2026-05-09 01:58 | -22.05022 | 166.15759 | 3586 ft | 261 kts | 188° |
| 2026-05-09 01:59 | -22.06688 | 166.15006 | 4342 ft | 266 kts | 221° |
| 2026-05-09 01:59 | -22.08039 | 166.13627 | 5244 ft | 268 kts | 226° |
| 2026-05-09 01:59 | -22.09371 | 166.12201 | 6165 ft | 272 kts | 226° |
| 2026-05-09 01:59 | -22.10714 | 166.10752 | 7019 ft | 275 kts | 226° |
| 2026-05-09 02:00 | -22.12075 | 166.09285 | 7856 ft | 277 kts | 226° |
| 2026-05-09 02:00 | -22.13446 | 166.07811 | 8675 ft | 280 kts | 226° |
| 2026-05-09 02:00 | -22.14830 | 166.06324 | 9497 ft | 282 kts | 227° |
| 2026-05-09 02:00 | -22.16228 | 166.04826 | 10252 ft | 286 kts | 227° |
| 2026-05-09 02:01 | -22.17691 | 166.03260 | 10508 ft | 308 kts | 227° |
| 2026-05-09 02:01 | -22.19271 | 166.01569 | 10673 ft | 331 kts | 227° |
| 2026-05-09 02:01 | -22.20956 | 165.99767 | 10888 ft | 350 kts | 227° |
| 2026-05-09 02:01 | -22.22710 | 165.97906 | 11413 ft | 356 kts | 226° |
| 2026-05-09 02:02 | -22.24497 | 165.96030 | 12028 ft | 360 kts | 226° |
| 2026-05-09 02:02 | -22.26309 | 165.94140 | 12652 ft | 364 kts | 226° |
| 2026-05-09 02:02 | -22.28140 | 165.92230 | 13275 ft | 368 kts | 227° |
| 2026-05-09 02:02 | -22.29989 | 165.90295 | 13869 ft | 371 kts | 227° |
| 2026-05-09 02:03 | -22.31822 | 165.88372 | 14395 ft | 374 kts | 227° |
| 2026-05-09 02:03 | -22.33697 | 165.86404 | 14953 ft | 376 kts | 228° |
| 2026-05-09 02:03 | -22.35579 | 165.84430 | 15522 ft | 378 kts | 228° |
| 2026-05-09 02:03 | -22.37470 | 165.82444 | 16062 ft | 380 kts | 229° |
| 2026-05-09 02:04 | -22.39367 | 165.80450 | 16614 ft | 382 kts | 229° |
| 2026-05-09 02:04 | -22.41275 | 165.78443 | 17155 ft | 383 kts | 229° |
| 2026-05-09 02:04 | -22.43189 | 165.76427 | 17685 ft | 385 kts | 229° |
| 2026-05-09 02:04 | -22.45106 | 165.74400 | 18220 ft | 387 kts | 230° |
| 2026-05-09 02:05 | -22.47033 | 165.72360 | 18685 ft | 389 kts | 230° |
| 2026-05-09 02:05 | -22.48971 | 165.70308 | 19120 ft | 391 kts | 230° |
| 2026-05-09 02:05 | -22.50917 | 165.68248 | 19579 ft | 393 kts | 230° |
| 2026-05-09 02:05 | -22.52875 | 165.66178 | 20018 ft | 395 kts | 230° |
| 2026-05-09 02:06 | -22.54844 | 165.64097 | 20443 ft | 397 kts | 230° |
| 2026-05-09 02:06 | -22.56824 | 165.62005 | 20884 ft | 399 kts | 230° |
| 2026-05-09 02:06 | -22.58815 | 165.59905 | 21293 ft | 401 kts | 230° |
| 2026-05-09 02:07 | -22.62812 | 165.55685 | 22117 ft | 406 kts | 230° |
| 2026-05-09 02:07 | -22.64836 | 165.53542 | 22525 ft | 408 kts | 230° |
| 2026-05-09 02:07 | -22.66869 | 165.51390 | 22934 ft | 410 kts | 230° |
| 2026-05-09 02:07 | -22.68917 | 165.49221 | 23325 ft | 412 kts | 230° |
| 2026-05-09 02:08 | -22.70970 | 165.47041 | 23689 ft | 414 kts | 230° |
| 2026-05-09 02:08 | -22.73031 | 165.44853 | 24026 ft | 416 kts | 230° |
| 2026-05-09 02:08 | -22.75099 | 165.42661 | 24369 ft | 417 kts | 230° |
| 2026-05-09 02:08 | -22.77177 | 165.40458 | 24717 ft | 418 kts | 231° |
| 2026-05-09 02:09 | -22.79252 | 165.38254 | 25068 ft | 418 kts | 231° |
| 2026-05-09 02:09 | -22.81328 | 165.36042 | 25411 ft | 419 kts | 231° |
| 2026-05-09 02:09 | -22.83413 | 165.33823 | 25746 ft | 420 kts | 231° |
| 2026-05-09 02:09 | -22.85502 | 165.31603 | 26091 ft | 421 kts | 231° |
| 2026-05-09 02:10 | -22.87600 | 165.29374 | 26426 ft | 422 kts | 231° |
| 2026-05-09 02:10 | -22.89701 | 165.27139 | 26739 ft | 424 kts | 231° |
| 2026-05-09 02:10 | -22.91808 | 165.24896 | 27043 ft | 425 kts | 231° |
| 2026-05-09 02:10 | -22.93920 | 165.22650 | 27349 ft | 426 kts | 231° |
| 2026-05-09 02:11 | -22.96039 | 165.20394 | 27656 ft | 427 kts | 231° |
| 2026-05-09 02:11 | -22.98160 | 165.18131 | 27952 ft | 428 kts | 231° |
| 2026-05-09 02:11 | -23.00256 | 165.15892 | 28253 ft | 429 kts | 231° |
| 2026-05-09 02:11 | -23.02411 | 165.13587 | 28571 ft | 429 kts | 231° |
| 2026-05-09 02:12 | -23.04508 | 165.11348 | 29015 ft | 427 kts | 231° |
| 2026-05-09 02:12 | -23.06623 | 165.09095 | 29462 ft | 425 kts | 231° |
| 2026-05-09 02:12 | -23.08725 | 165.06855 | 29908 ft | 423 kts | 231° |
| 2026-05-09 02:12 | -23.10817 | 165.04626 | 30313 ft | 420 kts | 231° |
| 2026-05-09 02:13 | -23.12903 | 165.02404 | 30701 ft | 418 kts | 232° |
| 2026-05-09 02:13 | -23.14962 | 165.00202 | 31101 ft | 414 kts | 232° |
| 2026-05-09 02:13 | -23.17006 | 164.98008 | 31509 ft | 411 kts | 232° |
| 2026-05-09 02:13 | -23.19036 | 164.95827 | 31921 ft | 408 kts | 232° |
| 2026-05-09 02:14 | -23.21047 | 164.93667 | 32328 ft | 405 kts | 232° |
| 2026-05-09 02:14 | -23.23049 | 164.91520 | 32739 ft | 402 kts | 233° |
| 2026-05-09 02:14 | -23.25036 | 164.89394 | 33149 ft | 399 kts | 233° |
| 2026-05-09 02:14 | -23.27009 | 164.87283 | 33567 ft | 396 kts | 233° |
| 2026-05-09 02:15 | -23.28943 | 164.85210 | 33975 ft | 393 kts | 233° |
| 2026-05-09 02:15 | -23.30907 | 164.83101 | 34332 ft | 391 kts | 233° |
| 2026-05-09 02:15 | -23.32835 | 164.81025 | 34654 ft | 389 kts | 233° |
| 2026-05-09 02:15 | -23.34728 | 164.78985 | 34962 ft | 387 kts | 233° |
| 2026-05-09 02:16 | -23.36636 | 164.76930 | 35250 ft | 386 kts | 233° |
| 2026-05-09 02:16 | -23.38544 | 164.74879 | 35526 ft | 384 kts | 233° |
| 2026-05-09 02:16 | -23.40440 | 164.72835 | 35797 ft | 383 kts | 234° |
| 2026-05-09 02:16 | -23.42330 | 164.70798 | 36006 ft | 382 kts | 234° |
| 2026-05-09 02:17 | -23.44226 | 164.68758 | 36049 ft | 384 kts | 234° |
| 2026-05-09 02:17 | -23.48029 | 164.64661 | 36054 ft | 384 kts | 234° |
| 2026-05-09 02:18 | -23.51768 | 164.60621 | 36055 ft | 384 kts | 234° |
| 2026-05-09 02:18 | -23.55555 | 164.56521 | 36056 ft | 384 kts | 234° |
| 2026-05-09 02:19 | -23.59312 | 164.52454 | 36056 ft | 383 kts | 234° |
| 2026-05-09 02:19 | -23.63100 | 164.48362 | 36061 ft | 383 kts | 234° |
| 2026-05-09 02:20 | -23.66884 | 164.44268 | 36069 ft | 383 kts | 234° |
| 2026-05-09 02:20 | -23.70669 | 164.40166 | 36074 ft | 383 kts | 234° |
| 2026-05-09 02:21 | -23.74427 | 164.36081 | 36080 ft | 384 kts | 234° |
| 2026-05-09 02:21 | -23.78206 | 164.31972 | 36080 ft | 384 kts | 234° |
| 2026-05-09 02:22 | -23.81991 | 164.27861 | 36082 ft | 384 kts | 234° |
| 2026-05-09 02:22 | -23.85768 | 164.23749 | 36078 ft | 383 kts | 234° |
| 2026-05-09 02:23 | -23.89545 | 164.19634 | 36083 ft | 384 kts | 234° |
| 2026-05-09 02:23 | -23.93326 | 164.15524 | 36085 ft | 383 kts | 234° |
| 2026-05-09 02:24 | -23.97101 | 164.11408 | 36086 ft | 383 kts | 235° |
| 2026-05-09 02:24 | -24.00868 | 164.07293 | 36084 ft | 383 kts | 235° |
| 2026-05-09 02:25 | -24.04636 | 164.03173 | 36084 ft | 383 kts | 235° |
| 2026-05-09 02:25 | -24.08404 | 163.99053 | 36091 ft | 383 kts | 235° |
| 2026-05-09 02:26 | -24.12166 | 163.94943 | 36084 ft | 382 kts | 235° |
| 2026-05-09 02:26 | -24.15923 | 163.90824 | 36089 ft | 382 kts | 235° |
| 2026-05-09 02:27 | -24.19651 | 163.86740 | 36092 ft | 381 kts | 235° |
| 2026-05-09 02:27 | -24.23400 | 163.82634 | 36092 ft | 381 kts | 235° |
| 2026-05-09 02:28 | -24.27139 | 163.78522 | 36094 ft | 381 kts | 235° |
| 2026-05-09 02:28 | -24.30875 | 163.74408 | 36095 ft | 381 kts | 235° |
| 2026-05-09 02:29 | -24.34613 | 163.70295 | 36099 ft | 381 kts | 235° |
| 2026-05-09 02:29 | -24.38351 | 163.66183 | 36100 ft | 380 kts | 235° |
| 2026-05-09 02:30 | -24.42085 | 163.62074 | 36099 ft | 380 kts | 236° |
| 2026-05-09 02:30 | -24.45795 | 163.57990 | 36105 ft | 380 kts | 236° |
| 2026-05-09 02:31 | -24.49518 | 163.53876 | 36103 ft | 379 kts | 236° |
| 2026-05-09 02:31 | -24.53230 | 163.49763 | 36106 ft | 379 kts | 236° |
| 2026-05-09 02:32 | -24.56946 | 163.45649 | 36105 ft | 379 kts | 236° |
| 2026-05-09 02:32 | -24.60659 | 163.41539 | 36106 ft | 378 kts | 236° |
| 2026-05-09 02:33 | -24.64368 | 163.37436 | 36105 ft | 378 kts | 236° |
| 2026-05-09 02:33 | -24.68044 | 163.33361 | 36106 ft | 377 kts | 236° |
| 2026-05-09 02:34 | -24.71733 | 163.29266 | 36108 ft | 377 kts | 236° |
| 2026-05-09 02:34 | -24.75421 | 163.25170 | 36105 ft | 376 kts | 236° |
| 2026-05-09 02:35 | -24.79105 | 163.21075 | 36107 ft | 376 kts | 236° |
| 2026-05-09 02:35 | -24.82781 | 163.16985 | 36108 ft | 376 kts | 236° |
| 2026-05-09 02:36 | -24.86458 | 163.12893 | 36108 ft | 375 kts | 236° |
| 2026-05-09 02:36 | -24.90127 | 163.08797 | 36109 ft | 375 kts | 236° |
| 2026-05-09 02:37 | -24.93781 | 163.04703 | 36110 ft | 375 kts | 236° |
| 2026-05-09 02:37 | -24.97438 | 163.00612 | 36108 ft | 374 kts | 236° |
| 2026-05-09 02:38 | -25.01091 | 162.96524 | 36107 ft | 374 kts | 236° |
| 2026-05-09 02:38 | -25.04715 | 162.92465 | 36106 ft | 374 kts | 237° |
| 2026-05-09 02:39 | -25.07767 | 162.89047 | 36108 ft | 374 kts | 236° |
| 2026-05-09 02:39 | -25.12006 | 162.84295 | 36112 ft | 373 kts | 237° |